createdAt,value
2023-02-04T00:00:22.473Z,91.86
2023-02-04T00:02:51.714Z,92.29
2023-02-04T00:05:19.952Z,92.08
2023-02-04T00:07:47.778Z,92.43
2023-02-04T00:10:15.863Z,93.57
2023-02-04T00:12:43.623Z,93.69
2023-02-04T00:15:11.691Z,93.50
2023-02-04T00:17:39.649Z,93.89
2023-02-04T00:20:09.900Z,94.25
2023-02-04T00:22:37.817Z,94.10
2023-02-04T00:25:06.059Z,93.82
2023-02-04T00:27:33.971Z,93.33
2023-02-04T00:30:01.755Z,92.64
2023-02-04T00:32:29.578Z,93.46
2023-02-04T00:34:57.356Z,92.13
2023-02-04T00:37:26.443Z,92.01
2023-02-04T00:39:54.265Z,91.31
2023-02-04T00:42:22.029Z,90.78
2023-02-04T00:44:49.874Z,90.32
2023-02-04T00:47:18.180Z,89.92
2023-02-04T00:49:46.043Z,89.93
2023-02-04T00:52:13.802Z,91.36
2023-02-04T00:54:43.504Z,91.03
2023-02-04T00:57:11.356Z,90.43
2023-02-04T00:59:39.162Z,91.75
2023-02-04T01:02:06.906Z,91.87
2023-02-04T01:04:36.852Z,92.88
2023-02-04T01:07:04.751Z,92.76
2023-02-04T01:09:34.778Z,93.13
2023-02-04T01:12:04.073Z,94.13
2023-02-04T01:14:31.851Z,94.03
2023-02-04T01:16:59.582Z,94.46
2023-02-04T01:19:27.535Z,95.70
2023-02-04T01:21:55.484Z,95.96
2023-02-04T01:24:24.352Z,96.67
2023-02-04T01:27:12.100Z,96.84
2023-02-04T01:29:39.990Z,97.03
2023-02-04T01:32:07.814Z,96.51
2023-02-04T01:34:35.702Z,95.72
2023-02-04T01:37:03.474Z,96.03
2023-02-04T01:39:34.087Z,95.76
2023-02-04T01:42:02.054Z,95.55
2023-02-04T01:44:31.617Z,94.66
2023-02-04T01:46:59.755Z,95.53
2023-02-04T01:49:28.120Z,94.54
2023-02-04T01:51:58.805Z,93.69
2023-02-04T01:54:27.525Z,92.78
2023-02-04T01:56:56.040Z,92.87
2023-02-04T01:59:26.178Z,92.23
2023-02-04T02:01:55.818Z,91.44
2023-02-04T02:04:30.209Z,91.84
2023-02-04T02:07:00.785Z,90.12
2023-02-04T02:09:31.855Z,89.17
2023-02-04T02:11:59.910Z,89.27
2023-02-04T02:14:27.741Z,89.53
2023-02-04T02:16:56.964Z,89.82
2023-02-04T02:19:29.555Z,89.59
2023-02-04T02:22:03.601Z,89.14
2023-02-04T02:24:33.764Z,90.63
2023-02-04T02:27:07.268Z,89.40
2023-02-04T02:29:35.321Z,89.73
2023-02-04T02:32:03.385Z,90.52
2023-02-04T02:34:31.753Z,89.59
2023-02-04T02:37:01.474Z,89.59
2023-02-04T02:39:29.605Z,89.17
2023-02-04T02:42:00.060Z,90.02
2023-02-04T02:44:30.112Z,89.18
2023-02-04T02:46:58.465Z,88.26
2023-02-04T02:49:27.413Z,87.59
2023-02-04T02:51:55.210Z,86.11
2023-02-04T02:54:25.483Z,85.46
2023-02-04T02:56:58.583Z,84.85
2023-02-04T02:59:27.489Z,84.23
2023-02-04T03:02:01.602Z,83.26
2023-02-04T03:04:34.328Z,83.46
2023-02-04T03:07:05.234Z,83.80
2023-02-04T03:09:34.954Z,85.67
2023-02-04T03:12:05.262Z,85.15
2023-02-04T03:14:34.309Z,84.75
2023-02-04T03:17:07.817Z,85.13
2023-02-04T03:19:36.409Z,83.94
2023-02-04T03:22:06.461Z,85.29
2023-02-04T03:24:38.169Z,85.48
2023-02-04T03:27:07.326Z,85.01
2023-02-04T03:29:35.492Z,84.16
2023-02-04T03:32:06.440Z,84.47
2023-02-04T03:34:36.835Z,84.82
2023-02-04T03:37:04.986Z,85.20
2023-02-04T03:39:35.332Z,85.93
2023-02-04T03:42:03.121Z,86.41
2023-02-04T03:44:32.199Z,86.41
2023-02-04T03:47:00.113Z,87.95
2023-02-04T03:49:28.331Z,87.68
2023-02-04T03:51:56.056Z,88.34
2023-02-04T03:54:23.844Z,88.00
2023-02-04T03:56:51.612Z,88.17
2023-02-04T03:59:19.386Z,89.52
2023-02-04T04:01:48.549Z,89.85
2023-02-04T04:04:16.275Z,90.44
2023-02-04T04:06:44.074Z,89.67
2023-02-04T04:09:11.843Z,90.26
2023-02-04T04:11:39.615Z,90.04
2023-02-04T04:14:09.726Z,89.62
2023-02-04T04:16:37.972Z,89.02
2023-02-04T04:19:07.175Z,89.70
2023-02-04T04:21:35.012Z,90.19
2023-02-04T04:24:02.759Z,89.97
2023-02-04T04:26:30.547Z,89.78
2023-02-04T04:28:58.243Z,90.37
2023-02-04T04:31:28.174Z,90.00
2023-02-04T04:33:56.097Z,90.42
2023-02-04T04:36:25.261Z,89.94
2023-02-04T04:38:55.281Z,90.05
2023-02-04T04:41:23.086Z,90.24
2023-02-04T04:43:50.852Z,89.34
2023-02-04T04:46:19.198Z,89.29
2023-02-04T04:48:47.001Z,90.02
2023-02-04T04:51:17.085Z,90.17
2023-02-04T04:53:46.129Z,89.02
2023-02-04T04:56:13.872Z,89.72
2023-02-04T04:58:41.665Z,89.28
2023-02-04T05:01:09.505Z,89.12
2023-02-04T05:03:37.694Z,89.21
2023-02-04T05:06:05.638Z,89.44
2023-02-04T05:08:34.805Z,89.35
2023-02-04T05:11:04.574Z,89.03
2023-02-04T05:13:32.372Z,89.45
2023-02-04T05:16:00.207Z,89.48
2023-02-04T05:18:28.056Z,88.70
2023-02-04T05:20:55.881Z,88.69
2023-02-04T05:23:23.630Z,89.11
2023-02-04T05:25:51.336Z,88.94
2023-02-04T05:28:20.445Z,89.14
2023-02-04T05:30:48.202Z,88.73
2023-02-04T05:33:16.132Z,90.02
2023-02-04T05:35:44.234Z,89.31
2023-02-04T05:38:11.987Z,89.90
2023-02-04T05:40:39.695Z,90.39
2023-02-04T05:43:07.443Z,90.06
2023-02-04T05:45:36.557Z,90.29
2023-02-04T05:48:04.736Z,90.38
2023-02-04T05:50:32.627Z,90.77
2023-02-04T05:53:09.912Z,90.59
2023-02-04T05:55:37.681Z,89.91
2023-02-04T05:58:05.419Z,89.85
2023-02-04T06:00:33.504Z,89.76
2023-02-04T06:03:02.809Z,90.21
2023-02-04T06:05:30.573Z,89.81
2023-02-04T06:07:58.298Z,89.62
2023-02-04T06:10:26.163Z,89.96
2023-02-04T06:12:53.949Z,90.19
2023-02-04T06:15:21.701Z,90.19
2023-02-04T06:17:49.466Z,90.22
2023-02-04T06:20:19.013Z,90.02
2023-02-04T06:22:47.653Z,89.97
2023-02-04T06:25:15.528Z,89.92
2023-02-04T06:27:43.307Z,90.38
2023-02-04T06:30:12.355Z,89.97
2023-02-04T06:32:40.403Z,89.99
2023-02-04T06:35:09.066Z,89.75
2023-02-04T06:37:38.148Z,90.04
2023-02-04T06:40:07.114Z,90.08
2023-02-04T06:42:34.768Z,90.40
2023-02-04T06:45:02.582Z,90.41
2023-02-04T06:47:30.537Z,90.70
2023-02-04T06:49:58.305Z,90.28
2023-02-04T06:52:26.124Z,90.09
2023-02-04T06:54:55.287Z,90.42
2023-02-04T06:57:23.181Z,90.92
2023-02-04T06:59:50.882Z,90.75
2023-02-04T07:02:18.760Z,91.13
2023-02-04T07:04:47.794Z,90.61
2023-02-04T07:07:15.654Z,90.60
2023-02-04T07:09:43.489Z,90.27
2023-02-04T07:12:12.951Z,90.26
2023-02-04T07:14:41.495Z,90.07
2023-02-04T07:17:09.275Z,90.19
2023-02-04T07:19:37.189Z,89.62
2023-02-04T07:22:05.269Z,89.39
2023-02-04T07:24:33.068Z,89.01
2023-02-04T07:27:02.591Z,89.08
2023-02-04T07:29:31.870Z,89.28
2023-02-04T07:31:59.745Z,90.47
2023-02-04T07:34:27.676Z,90.91
2023-02-04T07:36:55.585Z,89.72
2023-02-04T07:39:23.346Z,89.10
2023-02-04T07:41:51.074Z,89.28
2023-02-04T07:44:24.167Z,87.22
2023-02-04T07:46:53.364Z,87.22
2023-02-04T07:49:21.138Z,86.53
2023-02-04T07:51:48.903Z,86.63
2023-02-04T07:54:16.675Z,86.56
2023-02-04T07:56:46.752Z,86.21
2023-02-04T07:59:14.622Z,86.71
2023-02-04T08:01:42.399Z,86.38
2023-02-04T08:04:11.608Z,85.61
2023-02-04T08:06:39.556Z,85.16
2023-02-04T08:09:09.837Z,84.46
2023-02-04T08:11:37.999Z,85.46
2023-02-04T08:14:08.176Z,84.85
2023-02-04T08:16:35.868Z,85.10
2023-02-04T08:19:03.668Z,84.72
2023-02-04T08:21:32.795Z,83.80
2023-02-04T08:24:00.722Z,84.43
2023-02-04T08:26:28.613Z,84.21
2023-02-04T08:28:56.569Z,84.11
2023-02-04T08:31:24.585Z,85.16
2023-02-04T08:33:54.522Z,84.34
2023-02-04T08:36:22.329Z,84.20
2023-02-04T08:38:51.554Z,84.79
2023-02-04T08:41:19.296Z,86.15
2023-02-04T08:43:47.101Z,86.00
2023-02-04T08:46:15.033Z,85.38
2023-02-04T08:48:42.831Z,85.38
2023-02-04T08:51:10.614Z,86.09
2023-02-04T08:53:40.437Z,86.54
2023-02-04T08:56:10.446Z,86.77
2023-02-04T08:58:39.589Z,87.78
2023-02-04T09:01:11.295Z,86.53
2023-02-04T09:03:39.418Z,86.38
2023-02-04T09:06:08.691Z,85.64
2023-02-04T09:08:36.586Z,85.31
2023-02-04T09:11:04.915Z,85.52
2023-02-04T09:13:34.054Z,85.70
2023-02-04T09:16:04.294Z,85.89
2023-02-04T09:18:32.724Z,84.87
2023-02-04T09:21:00.856Z,84.82
2023-02-04T09:23:28.591Z,83.08
2023-02-04T09:25:56.452Z,82.41
2023-02-04T09:28:24.323Z,82.13
2023-02-04T09:30:53.728Z,80.44
2023-02-04T09:33:21.487Z,81.50
2023-02-04T09:35:49.259Z,82.32
2023-02-04T09:38:17.057Z,82.27
2023-02-04T09:40:48.659Z,78.61
2023-02-04T09:43:22.912Z,77.56
2023-02-04T09:45:50.909Z,77.31
2023-02-04T09:48:22.842Z,76.58
2023-02-04T09:50:51.454Z,74.75
2023-02-04T09:53:22.272Z,74.88
2023-02-04T09:55:51.723Z,75.34
2023-02-04T09:58:21.583Z,74.45
2023-02-04T10:00:53.833Z,74.47
2023-02-04T10:03:23.370Z,74.13
2023-02-04T10:05:52.512Z,74.80
2023-02-04T10:08:30.024Z,72.51
2023-02-04T10:11:01.090Z,72.95
2023-02-04T10:13:35.425Z,74.37
2023-02-04T10:16:10.477Z,67.41
2023-02-04T10:18:40.458Z,71.45
2023-02-04T10:21:16.032Z,69.91
2023-02-04T10:23:47.217Z,69.30
2023-02-04T10:26:16.857Z,69.66
2023-02-04T10:28:45.964Z,69.36
2023-02-04T10:31:30.210Z,69.80
2023-02-04T10:34:07.601Z,69.85
2023-02-04T10:36:35.548Z,70.06
2023-02-04T10:39:04.271Z,71.71
2023-02-04T10:41:33.382Z,70.79
2023-02-04T10:44:06.063Z,70.67
2023-02-04T10:46:34.160Z,68.89
2023-02-04T10:49:04.492Z,68.62
2023-02-04T10:51:34.159Z,67.35
2023-02-04T10:54:30.896Z,69.27
2023-02-04T10:57:00.840Z,68.64
2023-02-04T10:59:29.167Z,69.01
2023-02-04T11:01:58.500Z,69.21
2023-02-04T11:04:28.796Z,68.87
2023-02-04T11:06:57.901Z,68.62
2023-02-04T11:09:27.840Z,68.44
2023-02-04T11:11:59.688Z,69.94
2023-02-04T11:14:30.345Z,70.06
2023-02-04T11:17:01.717Z,70.42
2023-02-04T11:19:35.817Z,70.55
2023-02-04T11:22:22.330Z,70.52
2023-02-04T11:24:50.666Z,69.15
2023-02-04T11:27:24.583Z,70.29
2023-02-04T11:29:52.865Z,69.88
2023-02-04T11:32:33.596Z,68.87
2023-02-04T11:35:24.477Z,67.30
2023-02-04T11:37:55.809Z,68.09
2023-02-04T11:40:27.494Z,68.91
2023-02-04T11:43:01.055Z,68.79
2023-02-04T11:45:33.022Z,68.68
2023-02-04T11:48:03.443Z,68.09
2023-02-04T11:50:33.782Z,66.31
2023-02-04T11:53:05.479Z,67.96
2023-02-04T11:55:37.327Z,65.21
2023-02-04T11:58:05.425Z,64.06
2023-02-04T12:00:34.280Z,64.63
2023-02-04T12:03:11.861Z,62.92
2023-02-04T12:05:42.732Z,62.25
2023-02-04T12:08:14.281Z,62.88
2023-02-04T12:10:49.337Z,63.26
2023-02-04T12:13:19.720Z,60.94
2023-02-04T12:15:56.685Z,59.96
2023-02-04T12:18:24.524Z,63.41
2023-02-04T12:20:52.324Z,63.19
2023-02-04T12:23:22.002Z,62.60
2023-02-04T12:25:50.216Z,60.45
2023-02-04T12:28:18.387Z,63.82
2023-02-04T12:30:46.347Z,63.64
2023-02-04T12:33:15.049Z,63.56
2023-02-04T12:35:45.021Z,64.27
2023-02-04T12:38:12.884Z,63.01
2023-02-04T12:40:42.098Z,65.30
2023-02-04T12:43:09.854Z,67.24
2023-02-04T12:45:38.268Z,68.44
2023-02-04T12:48:06.272Z,67.88
2023-02-04T12:50:34.198Z,67.89
2023-02-04T12:53:01.915Z,68.72
2023-02-04T12:55:30.972Z,68.77
2023-02-04T12:58:00.355Z,69.55
2023-02-04T13:00:28.309Z,69.20
2023-02-04T13:02:58.906Z,69.49
2023-02-04T13:05:27.178Z,70.45
2023-02-04T13:07:55.210Z,69.06
2023-02-04T13:10:24.050Z,68.19
2023-02-04T13:12:51.933Z,69.05
2023-02-04T13:15:21.220Z,68.30
2023-02-04T13:17:48.967Z,68.87
2023-02-04T13:20:16.718Z,68.19
2023-02-04T13:22:44.576Z,65.73
2023-02-04T13:25:16.038Z,66.66
2023-02-04T13:27:46.100Z,67.10
2023-02-04T13:30:15.945Z,68.08
2023-02-04T13:32:45.123Z,66.03
2023-02-04T13:35:13.018Z,66.23
2023-02-04T13:37:40.734Z,65.93
2023-02-04T13:40:09.495Z,66.17
2023-02-04T13:42:37.314Z,64.66
2023-02-04T13:45:07.587Z,65.54
2023-02-04T13:47:37.672Z,65.71
2023-02-04T13:50:08.109Z,65.29
2023-02-04T13:52:35.972Z,65.87
2023-02-04T13:55:03.714Z,67.21
2023-02-04T13:57:32.906Z,67.60
2023-02-04T14:00:00.639Z,67.96
2023-02-04T14:02:30.508Z,66.79
2023-02-04T14:04:58.672Z,65.44
2023-02-04T14:07:27.944Z,63.81
2023-02-04T14:10:05.389Z,61.85
2023-02-04T14:12:33.120Z,62.75
2023-02-04T14:15:00.889Z,61.57
2023-02-04T14:17:28.673Z,62.46
2023-02-04T14:19:56.442Z,63.13
2023-02-04T14:22:24.316Z,62.38
2023-02-04T14:24:53.421Z,60.85
2023-02-04T14:27:21.172Z,60.99
2023-02-04T14:29:51.202Z,61.49
2023-02-04T14:32:20.863Z,60.56
2023-02-04T14:34:48.691Z,59.76
2023-02-04T14:37:16.407Z,60.62
2023-02-04T14:39:44.287Z,59.54
2023-02-04T14:42:15.450Z,60.31
2023-02-04T14:44:43.246Z,59.11
2023-02-04T14:47:11.069Z,57.77
2023-02-04T14:49:39.294Z,59.21
2023-02-04T14:52:07.832Z,58.40
2023-02-04T14:54:36.511Z,58.68
2023-02-04T14:57:04.439Z,58.06
2023-02-04T14:59:35.851Z,56.76
2023-02-04T15:02:04.106Z,56.24
2023-02-04T15:04:31.854Z,56.21
2023-02-04T15:07:00.710Z,56.86
2023-02-04T15:09:28.664Z,57.53
2023-02-04T15:11:56.894Z,57.10
2023-02-04T15:14:24.670Z,56.27
2023-02-04T15:16:53.812Z,58.74
2023-02-04T15:19:23.562Z,58.43
2023-02-04T15:21:54.007Z,59.18
2023-02-04T15:24:22.849Z,60.51
2023-02-04T15:26:51.336Z,62.25
2023-02-04T15:29:21.361Z,63.06
2023-02-04T15:31:49.239Z,64.53
2023-02-04T15:34:20.295Z,65.15
2023-02-04T15:36:48.052Z,66.78
2023-02-04T15:39:15.828Z,67.08
2023-02-04T15:41:43.610Z,68.01
2023-02-04T15:44:12.487Z,66.20
2023-02-04T15:46:40.211Z,64.69
2023-02-04T15:49:09.080Z,65.39
2023-02-04T15:51:38.172Z,65.89
2023-02-04T15:54:07.754Z,67.72
2023-02-04T15:56:35.654Z,68.79
2023-02-04T15:59:04.003Z,68.13
2023-02-04T16:01:31.991Z,68.58
2023-02-04T16:04:00.798Z,69.38
2023-02-04T16:06:28.824Z,69.27
2023-02-04T16:08:57.935Z,69.44
2023-02-04T16:11:25.721Z,69.64
2023-02-04T16:13:53.572Z,70.29
2023-02-04T16:16:21.410Z,71.02
2023-02-04T16:18:49.123Z,71.80
2023-02-04T16:21:17.017Z,71.47
2023-02-04T16:23:44.708Z,71.68
2023-02-04T16:26:14.098Z,72.25
2023-02-04T16:28:42.121Z,72.39
2023-02-04T16:31:10.686Z,72.25
2023-02-04T16:33:38.468Z,72.43
2023-02-04T16:36:11.677Z,73.39
2023-02-04T16:38:40.008Z,72.67
2023-02-04T16:41:08.289Z,72.80
2023-02-04T16:43:38.041Z,73.23
2023-02-04T16:46:08.418Z,74.88
2023-02-04T16:48:37.252Z,75.76
2023-02-04T16:51:05.481Z,76.10
2023-02-04T16:53:33.224Z,76.26
2023-02-04T16:56:02.137Z,77.13
2023-02-04T16:58:30.147Z,77.17
2023-02-04T17:00:59.869Z,77.80
2023-02-04T17:03:28.438Z,77.92
2023-02-04T17:05:56.480Z,77.54
2023-02-04T17:08:24.337Z,77.35
2023-02-04T17:11:09.562Z,76.68
2023-02-04T17:13:37.366Z,76.41
2023-02-04T17:16:08.909Z,76.85
2023-02-04T17:18:36.821Z,76.57
2023-02-04T17:21:04.923Z,75.82
2023-02-04T17:23:33.281Z,75.74
2023-02-04T17:26:01.090Z,75.32
2023-02-04T17:28:28.884Z,74.93
2023-02-04T17:30:56.794Z,74.60
2023-02-04T17:33:26.189Z,74.31
2023-02-04T17:35:54.016Z,73.88
2023-02-04T17:38:22.361Z,73.92
2023-02-04T17:40:50.472Z,73.93
2023-02-04T17:43:18.523Z,74.21
2023-02-04T17:45:46.421Z,74.44
2023-02-04T17:48:15.040Z,74.48
2023-02-04T17:50:44.436Z,74.70
2023-02-04T17:53:13.118Z,75.18
2023-02-04T17:55:41.500Z,75.10
2023-02-04T17:58:14.829Z,75.50
2023-02-04T18:00:44.765Z,77.19
2023-02-04T18:03:14.674Z,76.01
2023-02-04T18:05:47.531Z,76.54
2023-02-04T18:08:19.691Z,77.92
2023-02-04T18:10:49.372Z,78.01
2023-02-04T18:13:19.471Z,78.77
2023-02-04T18:15:50.628Z,77.95
2023-02-04T18:18:26.632Z,79.78
2023-02-04T18:21:02.153Z,80.06
2023-02-04T18:23:31.739Z,79.48
2023-02-04T18:26:08.696Z,79.02
2023-02-04T18:28:36.812Z,78.43
2023-02-04T18:31:18.079Z,77.60
2023-02-04T18:33:49.990Z,76.48
2023-02-04T18:36:23.069Z,77.05
2023-02-04T18:38:51.310Z,77.48
2023-02-04T18:41:33.880Z,77.73
2023-02-04T18:44:17.735Z,76.50
2023-02-04T18:46:48.286Z,78.13
2023-02-04T18:49:25.689Z,79.75
2023-02-04T18:51:55.671Z,79.25
2023-02-04T18:54:36.784Z,79.82
2023-02-04T18:57:28.805Z,79.91
2023-02-04T19:00:27.515Z,78.96
2023-02-04T19:02:58.469Z,79.98
2023-02-04T19:05:34.274Z,80.96
2023-02-04T19:08:33.241Z,80.11
2023-02-04T19:11:01.280Z,79.16
2023-02-04T19:13:39.436Z,78.44
2023-02-04T19:16:22.629Z,78.23
2023-02-04T19:18:51.257Z,78.70
2023-02-04T19:21:25.923Z,78.63
2023-02-04T19:23:59.903Z,78.11
2023-02-04T19:26:35.700Z,78.18
2023-02-04T19:29:39.981Z,77.75
2023-02-04T19:32:28.758Z,79.35
2023-02-04T19:35:01.042Z,79.55
2023-02-04T19:37:38.165Z,79.54
2023-02-04T19:40:23.659Z,79.19
2023-02-04T19:42:55.475Z,79.45
2023-02-04T19:45:26.462Z,79.43
2023-02-04T19:47:55.954Z,79.18
2023-02-04T19:50:28.711Z,79.85
2023-02-04T19:53:02.550Z,80.46
2023-02-04T19:55:38.052Z,79.97
2023-02-04T19:58:17.294Z,80.53
2023-02-04T20:00:57.168Z,79.86
2023-02-04T20:03:34.226Z,80.01
2023-02-04T20:06:17.426Z,79.85
2023-02-04T20:08:48.808Z,81.48
2023-02-04T20:11:53.010Z,81.17
2023-02-04T20:14:47.845Z,80.81
2023-02-04T20:17:25.066Z,80.04
2023-02-04T20:19:52.813Z,79.51
2023-02-04T20:22:45.736Z,81.38
2023-02-04T20:25:36.151Z,81.94
2023-02-04T20:28:26.692Z,81.79
2023-02-04T20:30:56.187Z,82.20
2023-02-04T20:33:28.108Z,82.21
2023-02-04T20:36:30.779Z,81.88
2023-02-04T20:39:24.838Z,82.93
2023-02-04T20:41:52.719Z,84.33
2023-02-04T20:44:27.911Z,83.57
2023-02-04T20:47:03.250Z,83.42
2023-02-04T20:49:40.494Z,84.01
2023-02-04T20:52:32.346Z,86.44
2023-02-04T20:55:02.404Z,88.61
2023-02-04T20:57:30.230Z,88.38
2023-02-04T20:59:59.424Z,87.76
2023-02-04T21:02:30.820Z,87.53
2023-02-04T21:05:01.830Z,87.47
2023-02-04T21:07:29.741Z,88.92
2023-02-04T21:09:57.876Z,88.95
2023-02-04T21:12:26.612Z,87.77
2023-02-04T21:14:54.425Z,88.19
2023-02-04T21:17:23.740Z,86.18
2023-02-04T21:19:51.500Z,85.13
2023-02-04T21:22:19.308Z,84.02
2023-02-04T21:24:47.172Z,84.17
2023-02-04T21:27:17.409Z,83.94
2023-02-04T21:29:47.278Z,84.25
2023-02-04T21:32:15.306Z,85.09
2023-02-04T21:34:44.499Z,89.80
2023-02-04T21:37:12.322Z,89.32
2023-02-04T21:39:40.040Z,89.03
2023-02-04T21:42:14.108Z,86.56
2023-02-04T21:44:41.875Z,86.22
2023-02-04T21:47:09.625Z,87.48
2023-02-04T21:49:40.171Z,87.43
2023-02-04T21:52:11.183Z,86.45
2023-02-04T21:54:38.992Z,85.51
2023-02-04T21:57:06.758Z,84.43
2023-02-04T21:59:34.725Z,85.20
2023-02-04T22:02:02.584Z,85.22
2023-02-04T22:04:30.472Z,84.94
2023-02-04T22:06:58.237Z,84.26
2023-02-04T22:09:27.457Z,83.74
2023-02-04T22:11:55.220Z,84.23
2023-02-04T22:14:23.033Z,83.24
2023-02-04T22:16:50.807Z,84.63
2023-02-04T22:19:20.579Z,84.76
2023-02-04T22:21:48.372Z,86.00
2023-02-04T22:24:16.155Z,87.95
2023-02-04T22:26:45.335Z,87.83
2023-02-04T22:29:13.104Z,87.45
2023-02-04T22:31:40.901Z,86.57
2023-02-04T22:34:09.101Z,86.17
2023-02-04T22:36:36.903Z,86.17
2023-02-04T22:39:04.709Z,86.07
2023-02-04T22:41:32.492Z,85.41
2023-02-04T22:44:01.642Z,86.53
2023-02-04T22:46:29.545Z,87.08
2023-02-04T22:48:57.494Z,88.24
2023-02-04T22:51:25.291Z,87.84
2023-02-04T22:53:53.022Z,88.56
2023-02-04T22:56:21.397Z,90.48
2023-02-04T22:58:49.908Z,88.19
2023-02-04T23:01:20.271Z,88.80
2023-02-04T23:03:49.514Z,88.23
2023-02-04T23:06:17.561Z,87.36
2023-02-04T23:08:45.399Z,86.82
2023-02-04T23:11:13.162Z,86.24
2023-02-04T23:13:40.988Z,85.57
2023-02-04T23:16:08.890Z,86.15
2023-02-04T23:18:38.125Z,85.72
2023-02-04T23:21:06.465Z,85.86
2023-02-04T23:23:34.634Z,85.17
2023-02-04T23:26:03.319Z,87.57
2023-02-04T23:28:31.976Z,87.75
2023-02-04T23:30:59.930Z,86.09
2023-02-04T23:33:27.680Z,86.56
2023-02-04T23:35:56.919Z,86.82
2023-02-04T23:38:24.878Z,87.96
2023-02-04T23:40:52.921Z,87.67
2023-02-04T23:43:20.746Z,88.32
2023-02-04T23:45:48.521Z,87.64
2023-02-04T23:48:16.361Z,86.37
2023-02-04T23:50:44.327Z,87.95
2023-02-04T23:53:13.535Z,90.35
2023-02-04T23:55:41.389Z,89.83
2023-02-04T23:58:11.255Z,88.44
